Time;durP1;ratioP1;P1;durP2;ratioP2;P2;SDS_P1;SDS_P2;PMS_P1;PMS_P2;Temp;Humidity;BMP_temperature;BMP_pressure;BME280_temperature;BME280_humidity;BME280_pressure;Samples;Min_cycle;Max_cycle;Signal;HPM_P1;HPM_P2
2023/05/10 00:00:59;;;;;;;4.70;3.30;;;;;;;9.88;79.53;101552.09;105904;1257;72288;-87
2023/05/10 00:03:26;;;;;;;4.00;3.00;;;;;;;9.85;79.63;101550.84;106024;1255;61380;-84
2023/05/10 00:05:53;;;;;;;6.50;3.50;;;;;;;9.81;80.47;101549.42;105961;1251;61299;-85
2023/05/10 00:08:20;;;;;;;6.20;3.80;;;;;;;9.77;80.90;101550.99;105931;1251;73931;-85
2023/05/10 00:10:48;;;;;;;3.60;3.20;;;;;;;9.74;80.87;101546.37;105917;1256;64782;-85
2023/05/10 00:13:15;;;;;;;7.60;2.90;;;;;;;9.74;81.10;101549.90;105940;1252;72518;-87
2023/05/10 00:15:41;;;;;;;3.50;2.20;;;;;;;9.73;80.38;101548.17;106035;1256;61787;-87
2023/05/10 00:18:08;;;;;;;4.60;2.40;;;;;;;9.73;78.00;101552.02;105962;1256;60077;-87
2023/05/10 00:20:35;;;;;;;6.00;2.80;;;;;;;9.73;77.24;101550.64;105961;1251;72932;-87
2023/05/10 00:23:02;;;;;;;7.30;3.00;;;;;;;9.76;77.08;101549.11;105950;1256;64665;-87
2023/05/10 00:25:29;;;;;;;3.20;2.60;;;;;;;9.80;77.83;101546.86;105922;1252;73539;-83
2023/05/10 00:27:57;;;;;;;4.90;2.70;;;;;;;9.83;77.23;101548.98;105873;1256;61378;-88
2023/05/10 00:30:24;;;;;;;7.90;2.30;;;;;;;9.86;76.52;101547.46;105943;1256;60107;-87
2023/05/10 00:32:51;;;;;;;4.30;3.10;;;;;;;9.90;76.04;101550.98;106009;1256;74002;-84
2023/05/10 00:35:18;;;;;;;5.20;2.30;;;;;;;9.93;76.06;101554.35;106104;1251;63921;-87
2023/05/10 00:37:45;;;;;;;3.90;2.70;;;;;;;9.93;76.04;101551.00;105877;1251;72407;-85
2023/05/10 00:40:12;;;;;;;6.50;3.00;;;;;;;9.92;77.04;101551.24;105928;1257;61183;-87
2023/05/10 00:42:40;;;;;;;6.60;3.10;;;;;;;9.88;77.87;101549.67;105976;1256;61044;-86
2023/05/10 00:45:07;;;;;;;6.30;3.20;;;;;;;9.82;78.54;101546.05;106070;1251;74482;-87
2023/05/10 00:47:36;;;;;;;8.50;3.80;;;;;;;9.79;79.14;101548.44;105967;1256;64836;-86
2023/05/10 00:50:03;;;;;;;4.60;3.00;;;;;;;9.76;79.73;101550.67;105897;1257;74521;-85
2023/05/10 00:52:30;;;;;;;6.80;3.50;;;;;;;9.71;80.10;101546.86;105897;1251;61391;-86
2023/05/10 00:54:58;;;;;;;8.10;3.30;;;;;;;9.66;79.13;101543.41;105942;1256;61098;-83
2023/05/10 00:57:25;;;;;;;4.80;3.10;;;;;;;9.61;79.86;101544.48;106040;1254;73019;-84
2023/05/10 00:59:52;;;;;;;4.90;2.90;;;;;;;9.57;79.35;101545.38;106670;1251;64631;-86
2023/05/10 01:02:18;;;;;;;5.20;2.80;;;;;;;9.52;79.66;101542.23;106457;1256;72315;-83
2023/05/10 01:04:46;;;;;;;7.00;2.70;;;;;;;9.50;80.02;101543.73;106160;1256;60107;-86
2023/05/10 01:07:13;;;;;;;5.20;3.00;;;;;;;9.49;79.97;101545.69;105928;1251;60293;-84
2023/05/10 01:09:39;;;;;;;7.30;3.70;;;;;;;9.47;80.55;101545.76;106188;1256;74269;-86
2023/05/10 01:12:07;;;;;;;7.80;3.90;;;;;;;9.45;81.47;101547.58;106340;1254;66126;-84
2023/05/10 01:14:36;;;;;;;7.70;3.70;;;;;;;9.43;81.86;101547.33;106604;1256;72601;-84
2023/05/10 01:17:03;;;;;;;5.20;4.00;;;;;;;9.40;82.42;101545.50;106244;1251;60325;-86
2023/05/10 01:19:30;;;;;;;7.70;4.10;;;;;;;9.39;83.31;101551.33;106686;1251;60812;-83
2023/05/10 01:22:31;;;;;;;9.30;4.40;;;;;;;9.37;84.12;101549.67;109919;1251;73010;-83
2023/05/10 01:25:11;;;;;;;5.50;3.70;;;;;;;9.34;84.76;101548.55;109157;1251;63818;-82
2023/05/10 01:27:51;;;;;;;8.30;3.80;;;;;;;9.32;85.67;101548.26;108161;1251;72703;-83
2023/05/10 01:30:43;;;;;;;7.60;3.30;;;;;;;9.35;86.43;101547.98;108239;1251;61142;-83
2023/05/10 01:33:45;;;;;;;6.30;3.70;;;;;;;9.40;86.96;101546.23;106946;1251;61032;-85
2023/05/10 01:36:40;;;;;;;7.90;4.50;;;;;;;9.44;86.83;101546.92;106288;1251;73067;-86
2023/05/10 01:39:28;;;;;;;14.30;4.10;;;;;;;9.47;86.41;101548.52;106217;1251;65202;-83
2023/05/10 01:41:55;;;;;;;9.10;4.60;;;;;;;9.49;86.08;101543.42;106018;1251;74504;-85
2023/05/10 01:44:26;;;;;;;8.10;5.30;;;;;;;9.47;86.12;101544.89;106613;1255;60156;-84
2023/05/10 01:46:58;;;;;;;8.30;5.50;;;;;;;9.45;86.07;101547.92;106083;1255;61514;-85
2023/05/10 01:49:40;;;;;;;13.80;5.20;;;;;;;9.43;85.65;101541.73;106015;1254;73311;-85
2023/05/10 01:52:10;;;;;;;11.30;5.40;;;;;;;9.40;84.87;101544.50;106045;1256;63950;-83
2023/05/10 01:54:38;;;;;;;13.10;5.90;;;;;;;9.37;84.89;101544.79;106050;1251;73550;-86
2023/05/10 01:57:07;;;;;;;9.60;6.30;;;;;;;9.34;85.15;101541.04;105765;1254;61651;-85
2023/05/10 01:59:40;;;;;;;17.20;6.00;;;;;;;9.32;85.41;101544.75;105947;1251;61116;-84
2023/05/10 02:02:07;;;;;;;13.20;5.80;;;;;;;9.30;85.55;101544.66;105899;1251;73011;-86
2023/05/10 02:04:35;;;;;;;8.00;4.20;;;;;;;9.30;86.27;101542.44;106004;1251;64133;-88
2023/05/10 02:07:02;;;;;;;8.40;4.30;;;;;;;9.28;87.21;101539.35;106012;1257;73429;-86
2023/05/10 02:09:29;;;;;;;9.80;5.20;;;;;;;9.29;88.13;101534.80;106070;1251;61125;-87
2023/05/10 02:11:57;;;;;;;13.70;5.70;;;;;;;9.30;88.59;101540.48;105850;1259;60318;-85
2023/05/10 02:14:26;;;;;;;9.50;5.90;;;;;;;9.33;88.87;101537.06;106091;1251;74151;-85
2023/05/10 02:16:53;;;;;;;8.80;5.80;;;;;;;9.35;88.89;101537.33;106174;1251;65375;-87
2023/05/10 02:19:20;;;;;;;11.90;6.10;;;;;;;9.34;89.27;101535.09;105918;1257;74092;-84
2023/05/10 02:21:47;;;;;;;10.30;5.80;;;;;;;9.32;89.28;101536.06;105813;1257;60566;-86
2023/05/10 02:24:15;;;;;;;8.00;6.00;;;;;;;9.31;89.47;101533.99;105796;1251;61086;-85
2023/05/10 02:26:42;;;;;;;9.60;5.90;;;;;;;9.30;89.35;101530.39;105945;1256;74860;-85
2023/05/10 02:29:09;;;;;;;10.80;6.00;;;;;;;9.27;89.45;101531.17;105797;1251;64566;-86
2023/05/10 02:31:38;;;;;;;9.60;5.60;;;;;;;9.25;89.48;101530.92;106054;1256;74488;-86
2023/05/10 02:34:06;;;;;;;5.50;4.80;;;;;;;9.25;90.04;101531.81;105965;1251;61843;-83
2023/05/10 02:36:33;;;;;;;11.20;6.10;;;;;;;9.25;90.21;101531.27;106114;1251;61011;-84
2023/05/10 02:39:00;;;;;;;13.50;6.20;;;;;;;9.27;90.49;101532.08;106143;1251;74446;-85
2023/05/10 02:41:27;;;;;;;11.30;5.90;;;;;;;9.29;90.56;101534.24;105836;1251;63715;-86
2023/05/10 02:43:56;;;;;;;12.70;6.00;;;;;;;9.32;90.54;101534.15;105991;1254;73330;-84
2023/05/10 02:46:24;;;;;;;11.30;6.40;;;;;;;9.34;90.52;101534.24;105948;1257;62176;-84
2023/05/10 02:48:51;;;;;;;8.30;5.10;;;;;;;9.35;90.63;101531.75;106037;1251;61387;-84
2023/05/10 02:51:18;;;;;;;13.70;5.70;;;;;;;9.34;90.56;101532.84;105934;1251;74771;-87
2023/05/10 02:53:46;;;;;;;10.30;5.20;;;;;;;9.33;90.83;101532.02;106036;1251;64525;-83
2023/05/10 02:56:43;;;;;;;11.10;5.60;;;;;;;9.30;91.36;101533.85;105864;1256;73943;-85
2023/05/10 02:59:09;;;;;;;14.80;4.40;;;;;;;9.28;91.38;101532.38;105389;1262;61958;-83
2023/05/10 03:01:36;;;;;;;9.60;5.60;;;;;;;9.28;91.54;101531.86;105406;1257;60548;-85
2023/05/10 03:04:03;;;;;;;8.70;4.80;;;;;;;9.31;91.61;101536.60;105453;1257;73963;-86
2023/05/10 03:06:31;;;;;;;7.70;5.10;;;;;;;9.36;91.48;101536.59;105429;1257;63617;-83
2023/05/10 03:08:58;;;;;;;8.80;5.30;;;;;;;9.42;91.15;101541.08;105762;1258;72419;-88
2023/05/10 03:11:51;;;;;;;10.70;5.60;;;;;;;9.47;90.88;101541.73;105396;1263;61215;-86
2023/05/10 03:14:29;;;;;;;11.00;6.30;;;;;;;9.51;89.92;101544.02;105562;1261;60794;-82
2023/05/10 03:17:00;;;;;;;13.10;6.00;;;;;;;9.51;89.79;101541.21;106884;1257;74866;-81
2023/05/10 03:19:32;;;;;;;22.20;17.00;;;;;;;9.48;89.71;101541.17;106038;1258;63856;-83
2023/05/10 03:22:02;;;;;;;20.60;17.30;;;;;;;9.46;89.76;101544.38;105605;1260;71677;-84
2023/05/10 03:24:30;;;;;;;19.30;14.40;;;;;;;9.47;89.80;101543.66;105519;1260;62051;-84
2023/05/10 03:26:58;;;;;;;21.00;18.80;;;;;;;9.49;89.77;101542.02;105525;1260;61137;-83
2023/05/10 03:29:25;;;;;;;18.70;15.10;;;;;;;9.51;89.49;101544.89;105568;1257;73594;-85
2023/05/10 03:31:52;;;;;;;19.80;10.20;;;;;;;9.54;88.84;101548.45;106044;1259;63803;-84
2023/05/10 03:34:24;;;;;;;12.90;9.90;;;;;;;9.59;89.42;101547.19;105593;1257;73722;-86
2023/05/10 03:36:51;;;;;;;13.60;10.30;;;;;;;9.64;89.60;101546.80;105844;1251;60863;-85
2023/05/10 03:39:18;;;;;;;15.30;11.40;;;;;;;9.69;89.92;101549.93;106008;1254;61136;-85
2023/05/10 03:41:48;;;;;;;14.80;10.40;;;;;;;9.72;89.80;101551.52;106049;1253;73476;-85
2023/05/10 03:44:16;;;;;;;14.10;9.00;;;;;;;9.76;89.68;101555.42;105876;1257;63375;-85
2023/05/10 03:46:43;;;;;;;12.00;8.00;;;;;;;9.78;89.64;101554.27;106060;1256;73734;-84
2023/05/10 03:49:10;;;;;;;13.60;7.20;;;;;;;9.80;89.57;101553.33;106079;1256;61118;-85
2023/05/10 03:51:37;;;;;;;16.80;7.60;;;;;;;9.80;89.41;101553.30;106091;1256;60536;-85
2023/05/10 03:54:04;;;;;;;11.30;6.80;;;;;;;9.83;89.77;101555.11;106311;1251;74738;-87
2023/05/10 03:56:32;;;;;;;12.90;6.90;;;;;;;9.88;90.13;101552.64;105956;1251;64764;-87
2023/05/10 03:59:00;;;;;;;10.80;5.80;;;;;;;9.93;90.49;101557.46;106069;1256;73603;-85
2023/05/10 04:01:27;;;;;;;9.10;6.50;;;;;;;10.01;90.50;101556.26;106066;1256;61655;-87
2023/05/10 04:03:54;;;;;;;12.90;7.00;;;;;;;10.10;90.36;101559.88;106015;1251;61298;-84
2023/05/10 04:06:21;;;;;;;16.50;7.30;;;;;;;10.22;90.27;101556.60;106104;1256;74992;-86
2023/05/10 04:08:48;;;;;;;9.50;6.10;;;;;;;10.35;90.00;101558.86;105980;1255;64544;-86
2023/05/10 04:11:15;;;;;;;10.50;7.40;;;;;;;10.46;89.95;101560.31;106034;1256;74298;-84
2023/05/10 04:13:42;;;;;;;14.90;6.30;;;;;;;10.56;89.57;101559.31;106014;1256;62112;-84
2023/05/10 04:16:10;;;;;;;12.20;5.80;;;;;;;10.70;89.40;101558.48;106090;1256;61139;-86
2023/05/10 04:18:37;;;;;;;64.70;8.00;;;;;;;10.85;88.00;101553.64;106049;1255;74748;-88
2023/05/10 04:21:03;;;;;;;8.80;4.50;;;;;;;11.01;87.28;101546.77;106056;1251;63609;-86
2023/05/10 04:23:30;;;;;;;4.20;3.50;;;;;;;11.16;84.34;101545.17;108183;1251;73770;-84
2023/05/10 04:26:01;;;;;;;4.10;3.70;;;;;;;11.30;81.92;101544.36;107512;1255;62044;-84
2023/05/10 04:28:28;;;;;;;6.90;3.10;;;;;;;11.42;81.07;101547.09;106399;1251;61026;-86
2023/05/10 04:31:09;;;;;;;3.80;3.50;;;;;;;11.58;79.53;101547.00;106250;1252;74872;-86
2023/05/10 04:33:36;;;;;;;5.90;3.10;;;;;;;11.78;78.11;101546.74;108707;1251;65257;-84
2023/05/10 04:36:04;;;;;;;5.00;2.60;;;;;;;12.00;77.29;101548.28;109843;1251;72567;-85
2023/05/10 04:38:31;;;;;;;5.70;2.90;;;;;;;12.25;75.11;101548.23;107374;1255;62000;-84
2023/05/10 04:41:09;;;;;;;5.90;2.70;;;;;;;12.46;73.39;101541.82;107293;1251;60411;-89
2023/05/10 04:43:36;;;;;;;4.20;2.70;;;;;;;12.66;71.96;101544.66;106390;1251;74780;-89
2023/05/10 04:46:03;;;;;;;3.30;1.90;;;;;;;12.84;70.93;101545.95;106237;1256;65321;-86
2023/05/10 04:48:30;;;;;;;4.20;1.90;;;;;;;12.99;67.35;101548.29;106210;1251;73512;-85
2023/05/10 04:52:08;;;;;;;2.50;1.90;;;;;;;13.17;64.45;101540.83;102625;1294;599950;-86
2023/05/10 04:54:36;;;;;;;4.60;1.70;;;;;;;13.28;62.48;101544.08;105318;1270;62367;-85
2023/05/10 04:57:03;;;;;;;2.30;1.20;;;;;;;13.30;59.30;101540.63;104884;1267;61584;-83
2023/05/10 04:59:30;;;;;;;3.10;1.30;;;;;;;13.36;58.84;101543.46;106647;1260;73238;-86
2023/05/10 05:01:58;;;;;;;2.90;1.10;;;;;;;13.43;58.57;101537.91;105822;1260;64781;-84
2023/05/10 05:04:25;;;;;;;2.00;1.30;;;;;;;13.59;58.01;101540.21;106387;1255;74393;-83
2023/05/10 05:06:52;;;;;;;2.40;1.20;;;;;;;13.80;55.59;101538.27;107630;1254;738248;-84
2023/05/10 05:09:20;;;;;;;2.50;1.40;;;;;;;14.00;53.65;101543.39;107019;1256;61109;-84
2023/05/10 05:11:47;;;;;;;3.20;1.10;;;;;;;14.22;52.60;101543.15;106752;1251;71983;-84
2023/05/10 05:14:14;;;;;;;3.40;1.40;;;;;;;14.49;51.24;101539.77;107267;1251;65513;-84
2023/05/10 05:16:41;;;;;;;0.90;0.80;;;;;;;14.71;49.62;101542.63;107877;1251;73895;-85
2023/05/10 05:19:08;;;;;;;1.30;1.00;;;;;;;14.89;47.68;101541.14;106240;1256;62395;-85
2023/05/10 05:21:35;;;;;;;1.20;1.00;;;;;;;14.97;46.26;101541.68;105960;1257;61428;-85
2023/05/10 05:24:02;;;;;;;1.60;1.10;;;;;;;15.00;46.36;101540.45;106126;1255;72793;-84
2023/05/10 05:26:29;;;;;;;1.00;0.80;;;;;;;15.02;46.30;101542.29;106149;1251;65456;-85
2023/05/10 05:28:56;;;;;;;2.30;1.40;;;;;;;15.01;44.99;101543.06;106053;1256;74648;-86
2023/05/10 05:31:23;;;;;;;2.20;1.20;;;;;;;15.04;44.98;101540.20;106061;1253;61238;-87
2023/05/10 05:33:51;;;;;;;3.50;1.10;;;;;;;15.18;45.18;101540.52;105982;1257;61654;-85
2023/05/10 05:36:18;;;;;;;1.80;1.30;;;;;;;15.33;45.23;101537.83;105946;1251;75028;-89
2023/05/10 05:38:45;;;;;;;1.80;1.00;;;;;;;15.47;45.25;101537.94;106114;1256;65927;-86
2023/05/10 05:41:12;;;;;;;3.20;0.70;;;;;;;15.51;44.43;101534.48;105908;1251;74567;-86
2023/05/10 05:43:39;;;;;;;2.50;0.90;;;;;;;15.48;42.84;101529.92;106271;1257;61122;-86
2023/05/10 05:46:06;;;;;;;1.30;0.60;;;;;;;15.35;41.63;101530.66;106062;1256;61200;-86
2023/05/10 05:48:33;;;;;;;1.90;1.00;;;;;;;15.27;41.44;101532.92;106268;1251;74697;-86
2023/05/10 05:51:00;;;;;;;1.50;0.80;;;;;;;15.25;41.38;101528.27;106317;1251;64653;-89
2023/05/10 05:53:27;;;;;;;1.20;0.50;;;;;;;15.25;39.84;101523.15;106308;1255;74582;-89
2023/05/10 05:55:56;;;;;;;4.80;1.00;;;;;;;15.13;39.91;101522.20;106163;1251;61592;-88
2023/05/10 05:58:24;;;;;;;0.90;0.90;;;;;;;14.98;39.39;101527.02;106287;1256;62018;-86
2023/05/10 06:00:51;;;;;;;2.30;0.80;;;;;;;14.83;39.63;101531.17;106562;1251;75002;-85
2023/05/10 06:03:18;;;;;;;4.60;1.20;;;;;;;14.74;40.13;101537.02;106278;1253;64559;-87
2023/05/10 06:05:46;;;;;;;2.20;1.10;;;;;;;14.61;40.18;101538.49;106505;1251;74740;-90
2023/05/10 06:08:13;;;;;;;3.10;0.70;;;;;;;14.51;40.34;101536.98;106185;1253;61467;-86
2023/05/10 06:10:40;;;;;;;3.40;0.90;;;;;;;14.55;41.85;101535.32;105737;1251;61233;-90
2023/05/10 06:13:07;;;;;;;1.50;0.70;;;;;;;14.69;42.08;101533.98;105983;1256;75226;-91
2023/05/10 06:15:35;;;;;;;3.40;0.70;;;;;;;14.81;40.58;101526.33;105936;1251;66313;-87
2023/05/10 06:18:02;;;;;;;0.90;0.70;;;;;;;14.89;40.36;101527.77;105970;1254;73618;-89
2023/05/10 06:20:33;;;;;;;3.70;1.40;;;;;;;14.95;39.67;101521.41;105798;1251;61348;-88
2023/05/10 06:23:00;;;;;;;2.30;0.80;;;;;;;14.98;39.85;101524.57;105853;1256;62341;-88
2023/05/10 06:25:27;;;;;;;1.70;0.70;;;;;;;15.00;39.92;101518.77;106445;1251;74963;-88
2023/05/10 06:27:57;;;;;;;0.80;0.70;;;;;;;14.99;38.71;101519.20;106313;1258;64550;-86
2023/05/10 06:30:28;;;;;;;1.90;0.60;;;;;;;14.87;38.45;101523.13;106505;1255;74765;-88
2023/05/10 06:32:56;;;;;;;3.20;0.50;;;;;;;14.74;38.81;101522.71;106179;1251;61571;-85
2023/05/10 06:35:24;;;;;;;2.00;0.70;;;;;;;14.68;39.32;101523.42;106156;1256;62004;-89
2023/05/10 06:37:51;;;;;;;8.40;0.80;;;;;;;14.65;39.40;101525.58;106021;1251;73884;-89
2023/05/10 06:40:18;;;;;;;0.90;0.60;;;;;;;14.67;39.73;101520.02;106155;1251;63391;-90
2023/05/10 06:42:47;;;;;;;2.20;0.80;;;;;;;14.80;39.12;101520.98;106143;1253;74760;-88
2023/05/10 06:45:15;;;;;;;3.70;0.70;;;;;;;15.03;39.04;101520.20;106117;1256;60066;-89
2023/05/10 06:47:42;;;;;;;4.80;1.00;;;;;;;15.42;38.00;101516.79;105981;1251;62093;-87
2023/05/10 06:50:11;;;;;;;1.40;1.00;;;;;;;15.78;37.60;101514.07;105803;1256;75556;-89
2023/05/10 06:52:38;;;;;;;2.90;0.70;;;;;;;16.12;37.75;101512.27;105801;1256;64568;-90
2023/05/10 06:55:10;;;;;;;3.20;1.30;;;;;;;16.41;36.86;101514.85;106092;1253;74398;-90
2023/05/10 06:57:37;;;;;;;18.50;4.10;;;;;;;16.59;35.93;101511.42;106590;1254;61603;-89
2023/05/10 07:00:05;;;;;;;43.30;5.60;;;;;;;16.61;35.52;101511.51;106142;1256;62776;-87
2023/05/10 07:02:32;;;;;;;3.30;0.90;;;;;;;16.55;36.23;101517.55;105916;1252;75232;-89
2023/05/10 07:04:59;;;;;;;11.70;2.70;;;;;;;16.59;35.86;101513.59;106028;1253;64737;-89
2023/05/10 07:07:29;;;;;;;147.90;21.70;;;;;;;16.56;35.42;101504.38;107353;1251;74591;-87
2023/05/10 07:09:57;;;;;;;10.40;2.20;;;;;;;16.57;36.05;101510.13;107922;1251;61353;-88
2023/05/10 07:12:26;;;;;;;3.50;1.10;;;;;;;16.55;36.13;101509.57;107027;1251;61999;-90
2023/05/10 07:14:53;;;;;;;5.90;1.00;;;;;;;16.57;36.32;101511.60;107880;1251;74029;-90
2023/05/10 07:17:22;;;;;;;12.30;2.30;;;;;;;16.72;36.23;101516.02;108224;1252;64523;-91
2023/05/10 07:19:55;;;;;;;2.60;0.70;;;;;;;17.09;36.20;101507.35;109407;1251;74061;-87
2023/05/10 07:22:22;;;;;;;0.90;0.60;;;;;;;17.49;35.55;101510.17;109139;1251;59763;-90
2023/05/10 07:24:49;;;;;;;7.20;1.80;;;;;;;17.86;35.39;101509.21;108892;1251;60956;-87
2023/05/10 07:27:17;;;;;;;3.20;0.90;;;;;;;18.14;35.67;101510.97;108876;1251;74052;-85
2023/05/10 07:29:44;;;;;;;11.00;2.10;;;;;;;18.31;36.33;101508.40;108789;1251;64406;-86
2023/05/10 07:32:12;;;;;;;16.00;11.20;;;;;;;18.41;36.16;101511.98;108206;1251;73457;-87
2023/05/10 07:34:40;;;;;;;2.30;1.80;;;;;;;18.32;36.16;101509.20;106435;1253;60919;-87
2023/05/10 07:37:07;;;;;;;5.10;2.30;;;;;;;18.08;35.94;101511.21;106297;1251;62305;-85
2023/05/10 07:39:34;;;;;;;1.70;0.90;;;;;;;17.84;35.63;101510.21;106948;1251;74595;-86
2023/05/10 07:42:02;;;;;;;1.80;0.90;;;;;;;17.60;34.87;101509.73;106709;1251;65740;-88
2023/05/10 07:44:29;;;;;;;1.90;1.20;;;;;;;17.33;34.50;101509.98;106900;1252;73575;-87
2023/05/10 07:46:56;;;;;;;3.10;0.70;;;;;;;16.99;34.81;101510.87;109638;1253;61244;-84
2023/05/10 07:49:25;;;;;;;0.80;0.80;;;;;;;16.68;34.57;101513.44;109658;1251;61001;-87
2023/05/10 07:51:52;;;;;;;3.50;0.90;;;;;;;16.40;35.14;101510.29;107549;1251;74002;-87
2023/05/10 07:54:21;;;;;;;1.80;0.70;;;;;;;16.15;36.45;101507.09;108392;1251;64746;-90
2023/05/10 07:56:51;;;;;;;1.80;1.30;;;;;;;16.01;37.13;101506.48;108663;1251;73473;-87
2023/05/10 07:59:23;;;;;;;3.20;0.80;;;;;;;15.93;37.37;101505.95;108722;1251;62335;-88
2023/05/10 08:01:53;;;;;;;3.40;1.40;;;;;;;15.89;37.59;101503.93;108427;1251;61105;-87
2023/05/10 08:04:49;;;;;;;2.10;1.00;;;;;;;15.86;37.11;101508.02;108125;1256;72528;-88
2023/05/10 08:07:18;;;;;;;1.90;1.00;;;;;;;15.77;37.27;101509.70;108187;1251;64747;-90
2023/05/10 08:09:46;;;;;;;3.00;1.00;;;;;;;15.63;37.74;101500.77;108426;1253;73790;-87
2023/05/10 08:12:21;;;;;;;3.80;1.20;;;;;;;15.51;38.33;101495.51;109179;1251;61616;-85
2023/05/10 08:15:13;;;;;;;1.40;0.70;;;;;;;15.50;38.63;101490.48;107352;1256;59371;-85
2023/05/10 08:17:45;;;;;;;3.10;0.90;;;;;;;15.56;39.52;101491.34;108360;1251;74593;-85
2023/05/10 08:24:15;;;;;;;;;;;;;;;15.81;37.97;101500.81;107641;1260;72616;-86
2023/05/10 08:26:45;;;;;;;5.30;2.20;;;;;;;15.84;38.20;101500.44;106283;1261;61319;-88
2023/05/10 08:29:15;;;;;;;3.20;0.90;;;;;;;15.83;38.06;101503.52;105744;1271;61234;-87
2023/05/10 08:31:43;;;;;;;4.50;1.30;;;;;;;15.77;38.35;101504.79;105643;1259;74816;-87
2023/05/10 08:34:10;;;;;;;2.90;2.00;;;;;;;15.68;38.97;101493.02;105615;1259;65957;-87
2023/05/10 08:36:37;;;;;;;3.00;1.20;;;;;;;15.55;39.59;101489.45;105520;1265;74869;-88
2023/05/10 08:39:04;;;;;;;4.50;1.10;;;;;;;15.50;39.73;101487.47;105483;1259;62636;-86
2023/05/10 08:41:37;;;;;;;4.10;2.90;;;;;;;15.50;39.52;101487.32;105801;1264;60090;-89
2023/05/10 08:44:05;;;;;;;0.90;0.70;;;;;;;15.56;38.75;101484.46;105717;1260;72776;-91
2023/05/10 08:46:34;;;;;;;3.30;0.90;;;;;;;15.70;38.61;101486.50;105501;1260;64382;-87
2023/05/10 08:49:02;;;;;;;1.30;0.80;;;;;;;15.91;38.43;101483.04;106035;1265;74859;-85
2023/05/10 08:51:32;;;;;;;2.00;0.70;;;;;;;16.09;38.28;101481.73;105795;1263;61390;-87
2023/05/10 08:53:59;;;;;;;1.20;1.10;;;;;;;16.23;37.98;101475.86;105875;1261;62481;-89
2023/05/10 08:56:29;;;;;;;1.60;0.90;;;;;;;16.30;37.46;101476.61;105456;1260;75300;-87
2023/05/10 08:58:56;;;;;;;6.40;1.40;;;;;;;16.33;37.61;101480.79;105670;1260;65178;-88
2023/05/10 09:01:23;;;;;;;2.00;1.20;;;;;;;16.29;37.22;101482.13;106799;1262;72851;-89
2023/05/10 09:03:51;;;;;;;1.50;0.80;;;;;;;16.17;36.99;101486.70;105622;1259;62283;-85
2023/05/10 09:06:18;;;;;;;7.20;1.10;;;;;;;16.00;37.38;101483.63;105757;1259;60880;-88
2023/05/10 09:08:45;;;;;;;2.10;0.80;;;;;;;15.78;37.90;101483.88;105259;1259;74765;-85
2023/05/10 09:11:13;;;;;;;4.70;0.80;;;;;;;15.52;38.28;101486.85;105371;1260;66136;-86
2023/05/10 09:13:40;;;;;;;2.70;1.10;;;;;;;15.30;40.95;101494.27;105534;1260;74802;-85
2023/05/10 09:16:07;;;;;;;1.40;1.00;;;;;;;15.06;43.83;101484.77;106015;1257;62062;-86
2023/05/10 09:18:49;;;;;;;2.40;1.00;;;;;;;14.88;47.64;101483.96;106428;1259;62149;-85
2023/05/10 09:21:17;;;;;;;1.80;1.00;;;;;;;14.81;48.62;101478.10;106103;1254;74577;-86
2023/05/10 09:23:49;;;;;;;2.40;0.40;;;;;;;14.83;45.22;101471.28;105660;1262;64725;-88
2023/05/10 09:26:17;;;;;;;2.50;0.60;;;;;;;14.95;43.63;101464.90;105678;1262;74992;-86
2023/05/10 09:28:52;;;;;;;2.90;1.00;;;;;;;15.12;44.42;101464.85;105875;1258;60998;-85
2023/05/10 09:31:19;;;;;;;2.80;0.80;;;;;;;15.30;45.28;101466.26;106034;1259;61006;-88
2023/05/10 09:33:48;;;;;;;1.80;1.00;;;;;;;15.43;44.09;101468.45;106109;1262;75721;-87
2023/05/10 09:36:15;;;;;;;3.90;1.20;;;;;;;15.45;43.57;101468.14;106224;1262;66550;-91
2023/05/10 09:38:51;;;;;;;6.40;3.40;;;;;;;15.35;43.25;101469.86;106231;1262;74522;-86
2023/05/10 09:41:20;;;;;;;3.80;1.30;;;;;;;15.14;43.33;101466.84;106137;1257;61997;-89
2023/05/10 09:43:47;;;;;;;10.40;6.70;;;;;;;14.89;43.47;101468.41;105781;1257;61214;-89
2023/05/10 09:46:15;;;;;;;4.50;2.60;;;;;;;14.69;43.20;101463.73;105970;1262;75719;-93
2023/05/10 09:48:48;;;;;;;2.10;1.60;;;;;;;14.55;42.46;101462.52;106244;1256;63818;-86
2023/05/10 09:51:24;;;;;;;4.30;1.80;;;;;;;14.50;42.68;101464.16;105858;1262;74641;-87
2023/05/10 09:54:11;;;;;;;1.80;0.90;;;;;;;14.54;44.25;101461.48;105825;1260;61557;-85
2023/05/10 09:56:40;;;;;;;2.70;1.60;;;;;;;14.67;43.49;101457.73;105867;1260;61589;-87
2023/05/10 09:59:10;;;;;;;3.80;0.60;;;;;;;14.85;42.80;101454.61;105471;1257;75688;-88
2023/05/10 10:01:38;;;;;;;1.50;0.80;;;;;;;15.05;41.91;101454.55;105845;1259;65883;-86
2023/05/10 10:04:07;;;;;;;2.80;1.50;;;;;;;15.22;41.55;101451.64;105739;1261;73037;-89
2023/05/10 10:06:38;;;;;;;1.70;1.60;;;;;;;15.38;41.72;101445.65;105705;1260;60521;-88
2023/05/10 10:09:06;;;;;;;0.90;0.70;;;;;;;15.52;40.85;101448.55;105778;1257;62078;-87
2023/05/10 10:11:38;;;;;;;1.20;1.00;;;;;;;15.65;39.56;101445.95;106614;1257;74771;-85
2023/05/10 10:14:06;;;;;;;2.00;1.60;;;;;;;15.83;39.55;101436.51;106443;1262;65274;-87
2023/05/10 10:16:33;;;;;;;3.50;2.20;;;;;;;16.01;38.44;101437.16;107846;1257;73757;-84
2023/05/10 10:19:00;;;;;;;2.40;1.60;;;;;;;16.21;38.54;101435.61;108298;1257;61950;-88
2023/05/10 10:21:27;;;;;;;3.00;1.70;;;;;;;16.41;38.23;101433.66;107207;1257;60997;-88
2023/05/10 10:23:55;;;;;;;1.60;1.50;;;;;;;16.62;37.62;101431.25;105836;1256;75702;-86
2023/05/10 10:26:22;;;;;;;2.20;1.90;;;;;;;16.83;37.13;101436.80;106021;1256;64811;-88
2023/05/10 10:29:19;;;;;;;1.40;1.30;;;;;;;17.06;35.13;101430.88;105870;1257;75411;-87
2023/05/10 10:32:08;;;;;;;2.30;1.40;;;;;;;17.46;35.21;101429.09;105822;1263;61124;-88
2023/05/10 10:34:38;;;;;;;7.90;5.90;;;;;;;17.99;35.80;101426.10;105711;1262;60969;-89
2023/05/10 10:37:06;;;;;;;2.30;2.10;;;;;;;18.41;35.06;101425.65;105613;1262;75488;-90
2023/05/10 10:39:36;;;;;;;1.60;1.20;;;;;;;18.60;34.80;101429.27;105885;1262;63938;-89
2023/05/10 10:42:04;;;;;;;9.30;6.60;;;;;;;18.61;34.99;101428.27;105629;1263;74683;-87
2023/05/10 10:44:36;;;;;;;4.10;1.50;;;;;;;18.42;35.49;101429.30;105928;1262;60989;-88
2023/05/10 10:47:22;;;;;;;2.30;1.00;;;;;;;18.17;37.70;101432.98;105777;1262;61928;-86
2023/05/10 10:50:02;;;;;;;2.00;1.30;;;;;;;17.75;39.39;101436.65;106571;1257;75809;-88
2023/05/10 10:52:42;;;;;;;2.00;1.50;;;;;;;17.32;38.71;101437.04;106699;1263;65444;-89
2023/05/10 10:55:14;;;;;;;2.70;0.90;;;;;;;16.95;39.50;101434.33;107030;1260;74222;-88
2023/05/10 10:57:51;;;;;;;5.80;1.20;;;;;;;16.65;40.25;101431.20;107411;1258;60998;-87
2023/05/10 11:00:20;;;;;;;3.10;1.00;;;;;;;16.30;39.34;101424.33;109363;1256;61133;-84
2023/05/10 11:02:51;;;;;;;5.20;0.80;;;;;;;15.98;39.61;101427.31;108307;1256;72588;-84
2023/05/10 11:05:24;;;;;;;1.80;0.80;;;;;;;15.82;40.51;101432.14;106797;1262;64801;-86
2023/05/10 11:07:56;;;;;;;1.30;0.80;;;;;;;15.66;40.73;101427.19;106846;1262;73774;-87
2023/05/10 11:10:24;;;;;;;2.10;1.00;;;;;;;15.57;41.51;101429.23;106942;1261;60992;-88
2023/05/10 11:13:09;;;;;;;4.10;1.20;;;;;;;15.51;42.12;101425.73;107474;1260;61218;-85
2023/05/10 11:15:38;;;;;;;1.50;1.10;;;;;;;15.50;42.22;101427.05;106911;1262;74444;-86
2023/05/10 11:18:18;;;;;;;3.00;1.20;;;;;;;15.52;41.40;101422.35;106817;1256;65913;-87
2023/05/10 11:21:00;;;;;;;3.40;1.00;;;;;;;15.57;41.92;101420.08;107132;1261;74876;-87
2023/05/10 11:23:56;;;;;;;3.20;0.80;;;;;;;15.66;41.89;101420.65;107124;1257;61208;-88
2023/05/10 11:26:35;;;;;;;1.40;1.20;;;;;;;15.70;40.78;101412.86;108401;1257;61587;-85
2023/05/10 11:29:02;;;;;;;2.00;1.10;;;;;;;15.78;39.57;101421.30;108349;1256;74410;-86
2023/05/10 11:31:30;;;;;;;2.70;1.30;;;;;;;15.80;39.04;101419.02;107152;1258;64647;-88
2023/05/10 11:34:03;;;;;;;3.10;1.00;;;;;;;15.83;39.51;101414.11;106624;1261;73635;-88
2023/05/10 11:36:34;;;;;;;3.90;2.00;;;;;;;15.94;39.50;101416.88;106290;1262;61298;-86